createdAt,value
2023-03-21T00:02:13.890Z,100673.16
2023-03-21T00:05:13.311Z,100765.88
2023-03-21T00:08:02.778Z,100764.13
2023-03-21T00:10:49.847Z,100765.91
2023-03-21T00:13:36.726Z,100762.44
2023-03-21T00:16:35.745Z,100759.88
2023-03-21T00:19:27.565Z,100753.75
2023-03-21T00:22:14.386Z,100749.41
2023-03-21T00:25:01.318Z,100745.06
2023-03-21T00:28:05.273Z,100754.69
2023-03-21T00:30:54.207Z,100739.09
2023-03-21T00:33:41.185Z,100705.31
2023-03-21T00:36:29.749Z,100754.72
2023-03-21T00:39:18.748Z,100752.13
2023-03-21T00:42:05.702Z,100748.66
2023-03-21T00:44:52.637Z,100727.00
2023-03-21T00:47:39.754Z,100742.56
2023-03-21T00:50:27.177Z,100741.75
2023-03-21T00:53:15.078Z,100733.09
2023-03-21T00:56:02.215Z,100740.91
2023-03-21T00:58:29.469Z,100742.63
2023-03-21T01:00:57.621Z,100732.22
2023-03-21T01:03:26.736Z,100733.97
2023-03-21T01:06:06.992Z,100733.09
2023-03-21T01:08:51.780Z,100723.53
2023-03-21T01:11:22.876Z,100720.94
2023-03-21T01:13:56.163Z,100707.97
2023-03-21T01:16:29.542Z,100688.06
2023-03-21T01:18:56.940Z,100726.16
2023-03-21T01:21:24.325Z,100729.66
2023-03-21T01:23:51.286Z,100722.72
2023-03-21T01:26:19.705Z,100719.22
2023-03-21T01:28:46.753Z,100708.91
2023-03-21T01:31:15.966Z,100707.06
2023-03-21T01:33:43.818Z,100672.47
2023-03-21T01:36:24.336Z,100711.44
2023-03-21T01:38:54.809Z,100706.25
2023-03-21T01:41:36.687Z,100715.78
2023-03-21T01:44:20.754Z,100717.56
2023-03-21T01:47:12.262Z,100715.81
2023-03-21T01:49:46.248Z,100705.44
2023-03-21T01:52:38.682Z,100727.16
2023-03-21T01:55:18.233Z,100722.81
2023-03-21T01:58:05.858Z,100681.22
2023-03-21T02:00:57.133Z,100724.56
2023-03-21T02:03:50.699Z,100726.31
2023-03-21T02:07:03.893Z,100721.97
2023-03-21T02:09:45.644Z,100726.31
2023-03-21T02:12:18.805Z,100716.81
2023-03-21T02:14:49.634Z,100733.31
2023-03-21T02:18:03.672Z,100730.72
2023-03-21T02:21:20.547Z,100731.56
2023-03-21T02:23:56.164Z,100733.34
2023-03-21T02:27:03.555Z,100716.78
2023-03-21T02:29:46.109Z,100722.91
2023-03-21T02:32:51.556Z,100723.75
2023-03-21T02:35:51.863Z,100721.16
2023-03-21T02:38:48.809Z,100716.84
2023-03-21T02:41:42.167Z,100662.28
2023-03-21T02:44:26.929Z,100722.94
2023-03-21T02:47:06.618Z,100642.41
2023-03-21T02:49:50.056Z,100733.38
2023-03-21T02:52:37.733Z,100717.00
2023-03-21T02:55:15.582Z,100668.50
2023-03-21T02:57:56.374Z,100697.91
2023-03-21T03:00:33.393Z,100737.78
2023-03-21T03:03:09.642Z,100736.06
2023-03-21T03:05:55.902Z,100719.66
2023-03-21T03:08:45.244Z,100748.22
2023-03-21T03:11:22.746Z,100746.31
2023-03-21T03:14:31.548Z,100739.22
2023-03-21T03:17:24.375Z,100748.78
2023-03-21T03:20:15.092Z,100750.53
2023-03-21T03:23:04.537Z,100746.22
2023-03-21T03:25:47.827Z,100694.22
2023-03-21T03:28:21.391Z,100706.50
2023-03-21T03:31:07.520Z,100740.22
2023-03-21T03:33:45.149Z,100737.72
2023-03-21T03:36:30.374Z,100749.00
2023-03-21T03:39:04.456Z,100740.34
2023-03-21T03:42:02.913Z,100741.22
2023-03-21T03:44:28.418Z,100709.19
2023-03-21T03:47:06.930Z,100737.78
2023-03-21T03:49:50.887Z,100739.53
2023-03-21T03:52:23.774Z,100725.69
2023-03-21T03:55:13.360Z,100736.09
2023-03-21T03:57:42.711Z,100707.50
2023-03-21T04:00:12.988Z,100663.38
2023-03-21T04:02:48.168Z,100737.00
2023-03-21T04:05:21.483Z,100734.41
2023-03-21T04:07:51.179Z,100700.69
2023-03-21T04:10:22.766Z,100736.16
2023-03-21T04:12:50.176Z,100747.50
2023-03-21T04:15:56.337Z,100749.25
2023-03-21T04:18:23.763Z,100742.31
2023-03-21T04:20:51.546Z,100744.94
2023-03-21T04:23:20.280Z,100748.41
2023-03-21T04:25:56.756Z,100744.09
2023-03-21T04:28:36.305Z,100717.16
2023-03-21T04:31:27.255Z,100705.00
2023-03-21T04:34:10.072Z,100730.19
2023-03-21T04:36:43.170Z,100733.69
2023-03-21T04:39:13.758Z,100733.72
2023-03-21T04:41:44.347Z,100731.13
2023-03-21T04:44:12.941Z,100712.97
2023-03-21T04:46:40.284Z,100738.94
2023-03-21T04:49:08.102Z,100732.84
2023-03-21T04:51:36.977Z,100732.00
2023-03-21T04:56:36.114Z,100731.13
2023-03-21T04:59:08.738Z,100732.84
2023-03-21T05:01:35.875Z,100731.13
2023-03-21T05:04:04.474Z,100686.06
2023-03-21T05:06:34.092Z,100727.69
2023-03-21T05:09:01.702Z,100729.41
2023-03-21T05:11:33.413Z,100743.28
2023-03-21T05:14:01.182Z,100731.16
2023-03-21T05:16:30.802Z,100733.78
2023-03-21T05:19:03.963Z,100725.03
2023-03-21T05:21:41.747Z,100725.91
2023-03-21T05:24:16.170Z,100725.03
2023-03-21T05:26:44.319Z,100725.91
2023-03-21T05:29:15.496Z,100726.78
2023-03-21T05:31:45.930Z,100647.06
2023-03-21T05:34:14.850Z,100723.28
2023-03-21T05:36:42.419Z,100724.16
2023-03-21T05:39:11.084Z,100721.56
2023-03-21T05:41:42.985Z,100723.28
2023-03-21T05:44:10.021Z,100716.34
2023-03-21T05:46:38.699Z,100721.56
2023-03-21T05:49:26.206Z,100722.41
2023-03-21T05:52:17.137Z,100735.41
2023-03-21T05:55:07.822Z,100729.38
2023-03-21T05:57:54.999Z,100733.69
2023-03-21T06:00:48.068Z,100730.19
2023-03-21T06:03:48.234Z,100720.66
2023-03-21T06:06:46.732Z,100725.84
2023-03-21T06:09:34.468Z,100720.63
2023-03-21T06:12:24.615Z,100697.28
2023-03-21T06:15:27.042Z,100732.75
2023-03-21T06:18:21.002Z,100736.22
2023-03-21T06:21:16.278Z,100736.22
2023-03-21T06:24:03.176Z,100733.59
2023-03-21T06:26:50.354Z,100665.16
2023-03-21T06:29:37.432Z,100736.19
2023-03-21T06:32:24.521Z,100741.38
2023-03-21T06:35:16.921Z,100735.28
2023-03-21T06:38:04.030Z,100733.50
2023-03-21T06:40:53.390Z,100726.53
2023-03-21T06:43:42.617Z,100729.06
2023-03-21T06:46:29.484Z,100723.78
2023-03-21T06:49:16.811Z,100717.69
2023-03-21T06:52:03.813Z,100715.84
2023-03-21T06:54:50.761Z,100715.81
2023-03-21T06:57:37.760Z,100719.22
2023-03-21T07:00:28.388Z,100727.84
2023-03-21T07:03:15.421Z,100716.44
2023-03-21T07:06:02.910Z,100717.22
2023-03-21T07:08:49.940Z,100709.28
2023-03-21T07:11:38.848Z,100714.41
2023-03-21T07:14:26.210Z,100606.97
2023-03-21T07:17:13.944Z,100717.72
2023-03-21T07:20:00.864Z,100663.81
2023-03-21T07:22:48.706Z,100690.59
2023-03-21T07:25:35.736Z,100720.84
2023-03-21T07:28:22.856Z,100700.84
2023-03-21T07:31:19.040Z,100711.91
2023-03-21T07:34:08.545Z,100715.25
2023-03-21T07:36:55.556Z,100719.56
2023-03-21T07:39:42.539Z,100700.28
2023-03-21T07:42:29.385Z,100711.41
2023-03-21T07:45:21.171Z,100711.28
2023-03-21T07:48:09.044Z,100692.16
2023-03-21T07:50:56.192Z,100708.41
2023-03-21T07:53:43.122Z,100710.91
2023-03-21T07:56:30.162Z,100690.81
2023-03-21T07:59:17.108Z,100700.16
2023-03-21T08:02:04.110Z,100695.75
2023-03-21T08:04:51.246Z,100699.09
2023-03-21T08:07:38.213Z,100691.13
2023-03-21T08:10:25.496Z,100680.56
2023-03-21T08:13:12.529Z,100616.59
2023-03-21T08:15:59.420Z,100687.38
2023-03-21T08:18:46.447Z,100605.13
2023-03-21T08:21:33.361Z,100694.06
2023-03-21T08:24:20.314Z,100677.44
2023-03-21T08:27:07.280Z,100683.41
2023-03-21T08:29:54.236Z,100671.09
2023-03-21T08:32:41.311Z,100679.69
2023-03-21T08:35:30.588Z,100677.06
2023-03-21T08:38:17.656Z,100681.25
2023-03-21T08:41:04.671Z,100679.41
2023-03-21T08:43:51.623Z,100675.00
2023-03-21T08:46:38.707Z,100633.50
2023-03-21T08:49:25.741Z,100603.06
2023-03-21T08:52:16.211Z,100677.31
2023-03-21T08:55:03.060Z,100677.13
2023-03-21T08:57:50.661Z,100677.03
2023-03-21T09:00:38.002Z,100649.34
2023-03-21T09:03:25.057Z,100669.81
2023-03-21T09:06:13.846Z,100677.56
2023-03-21T09:09:04.644Z,100660.84
2023-03-21T09:11:52.646Z,100669.50
2023-03-21T09:14:39.655Z,100629.72
2023-03-21T09:17:26.766Z,100676.28
2023-03-21T09:20:13.661Z,100661.28
2023-03-21T09:23:00.598Z,100674.28
2023-03-21T09:25:47.464Z,100669.75
2023-03-21T09:28:34.288Z,100667.94
2023-03-21T09:31:21.185Z,100649.66
2023-03-21T09:34:12.359Z,100675.47
2023-03-21T09:36:59.183Z,100677.94
2023-03-21T09:39:46.159Z,100666.41
2023-03-21T09:42:32.997Z,100664.47
2023-03-21T09:45:26.139Z,100660.06
2023-03-21T09:48:15.368Z,100664.22
2023-03-21T09:51:03.212Z,100665.63
2023-03-21T09:53:57.344Z,100658.47
2023-03-21T09:56:45.384Z,100654.56
2023-03-21T09:59:42.428Z,100663.06
2023-03-21T10:02:57.394Z,100656.59
2023-03-21T10:05:46.989Z,100656.34
2023-03-21T10:08:44.753Z,100641.94
2023-03-21T10:11:45.557Z,100632.09
2023-03-21T10:14:50.256Z,100578.16
2023-03-21T10:17:49.434Z,100624.16
2023-03-21T10:20:42.451Z,100633.34
2023-03-21T10:23:35.006Z,100636.53
2023-03-21T10:26:25.545Z,100594.75
2023-03-21T10:29:14.806Z,100630.50
2023-03-21T10:32:02.895Z,100634.59
2023-03-21T10:34:59.756Z,100626.38
2023-03-21T10:37:47.418Z,100626.00
2023-03-21T10:40:36.822Z,100625.63
2023-03-21T10:43:57.036Z,100627.84
2023-03-21T10:46:47.370Z,100579.97
2023-03-21T10:49:44.392Z,100582.22
2023-03-21T10:52:48.695Z,100627.69
2023-03-21T10:55:46.406Z,100618.50
2023-03-21T10:58:40.530Z,100612.91
2023-03-21T11:01:31.433Z,100569.31
2023-03-21T11:04:21.622Z,100612.28
2023-03-21T11:07:14.702Z,100618.09
2023-03-21T11:10:06.152Z,100606.19
2023-03-21T11:12:57.571Z,100610.22
2023-03-21T11:15:52.446Z,100604.59
2023-03-21T11:18:46.152Z,100605.09
2023-03-21T11:21:34.686Z,100596.03
2023-03-21T11:24:23.239Z,100591.81
2023-03-21T11:27:10.782Z,100588.81
2023-03-21T11:30:05.256Z,100552.59
2023-03-21T11:32:57.398Z,100605.66
2023-03-21T11:35:58.426Z,100597.28
2023-03-21T11:38:56.328Z,100584.59
2023-03-21T11:41:50.256Z,100594.72
2023-03-21T11:45:04.116Z,100582.25
2023-03-21T11:47:51.188Z,100586.78
2023-03-21T11:50:48.811Z,100590.78
2023-03-21T11:54:00.219Z,100593.03
2023-03-21T11:57:00.371Z,100573.44
2023-03-21T11:59:53.106Z,100579.03
2023-03-21T12:03:28.938Z,100575.25
2023-03-21T12:06:22.120Z,100570.50
2023-03-21T12:09:22.975Z,100564.22
2023-03-21T12:12:24.501Z,100568.94
2023-03-21T12:15:31.918Z,100558.84
2023-03-21T12:18:30.048Z,100530.38
2023-03-21T12:21:25.333Z,100556.59
2023-03-21T12:24:23.804Z,100559.00
2023-03-21T12:27:23.305Z,100559.53
2023-03-21T12:30:19.510Z,100554.00
2023-03-21T12:33:17.211Z,100558.88
2023-03-21T12:36:27.115Z,100570.03
2023-03-21T12:39:35.654Z,100560.09
2023-03-21T12:42:37.584Z,100558.91
2023-03-21T12:45:53.044Z,100551.66
2023-03-21T12:48:48.454Z,100555.13
2023-03-21T12:51:40.721Z,100532.53
2023-03-21T12:54:46.424Z,100564.63
2023-03-21T12:57:44.790Z,100555.50
2023-03-21T13:00:40.779Z,100532.63
2023-03-21T13:04:00.244Z,100539.19
2023-03-21T13:06:48.638Z,100530.22
2023-03-21T13:10:00.368Z,100533.66
2023-03-21T13:13:11.095Z,100539.75
2023-03-21T13:16:15.531Z,100535.31
2023-03-21T13:19:10.663Z,100532.81
2023-03-21T13:22:21.990Z,100532.50
2023-03-21T13:25:15.225Z,100537.78
2023-03-21T13:28:03.218Z,100542.22
2023-03-21T13:30:51.439Z,100530.69
2023-03-21T13:33:50.253Z,100535.94
2023-03-21T13:36:44.149Z,100524.38
2023-03-21T13:39:43.957Z,100528.81
2023-03-21T13:42:40.691Z,100518.28
2023-03-21T13:45:33.058Z,100525.47
2023-03-21T13:48:58.009Z,100513.13
2023-03-21T13:51:48.495Z,100522.19
2023-03-21T13:54:35.394Z,100522.34
2023-03-21T13:57:26.057Z,100512.72
2023-03-21T14:00:38.060Z,100514.69
2023-03-21T14:03:36.452Z,100521.63
2023-03-21T14:06:23.636Z,100526.31
2023-03-21T14:09:10.715Z,100511.41
2023-03-21T14:12:07.171Z,100507.19
2023-03-21T14:15:07.117Z,100507.19
2023-03-21T14:17:57.517Z,100516.06
2023-03-21T14:20:49.296Z,100514.44
2023-03-21T14:23:36.708Z,100501.50
2023-03-21T14:26:25.484Z,100506.16
2023-03-21T14:29:25.109Z,100510.00
2023-03-21T14:32:15.144Z,100520.75
2023-03-21T14:35:04.174Z,100508.47
2023-03-21T14:37:59.401Z,100501.63
2023-03-21T14:40:48.470Z,100496.69
2023-03-21T14:43:35.502Z,100478.09
2023-03-21T14:46:22.610Z,100509.38
2023-03-21T14:49:09.662Z,100499.94
2023-03-21T14:51:56.749Z,100503.81
2023-03-21T14:54:45.472Z,100501.38
2023-03-21T14:57:38.289Z,100509.56
2023-03-21T15:00:28.981Z,100507.19
2023-03-21T15:03:19.026Z,100512.78
2023-03-21T15:06:06.870Z,100487.03
2023-03-21T15:08:53.798Z,100511.66
2023-03-21T15:11:56.753Z,100511.09
2023-03-21T15:14:48.274Z,100520.19
2023-03-21T15:17:35.522Z,100520.47
2023-03-21T15:20:22.397Z,100520.59
2023-03-21T15:23:15.020Z,100508.56
2023-03-21T15:26:02.601Z,100494.47
2023-03-21T15:28:49.670Z,100511.84
2023-03-21T15:31:40.691Z,100518.78
2023-03-21T15:34:37.351Z,100489.97
2023-03-21T15:37:26.719Z,100516.75
2023-03-21T15:40:14.626Z,100520.47
2023-03-21T15:43:02.101Z,100513.63
2023-03-21T15:45:50.238Z,100518.31
2023-03-21T15:48:41.029Z,100514.91
2023-03-21T15:51:37.638Z,100507.53
2023-03-21T15:54:24.984Z,100517.91
2023-03-21T15:57:17.111Z,100509.81
2023-03-21T16:00:03.971Z,100513.28
2023-03-21T16:03:01.944Z,100514.31
2023-03-21T16:05:51.538Z,100519.72
2023-03-21T16:08:46.938Z,100513.69
2023-03-21T16:11:43.085Z,100516.44
2023-03-21T16:14:30.000Z,100509.78
2023-03-21T16:17:17.448Z,100519.53
2023-03-21T16:20:04.266Z,100533.69
2023-03-21T16:22:51.605Z,100524.25
2023-03-21T16:25:38.662Z,100534.03
2023-03-21T16:28:32.740Z,100539.56
2023-03-21T16:31:19.907Z,100523.84
2023-03-21T16:34:06.911Z,100526.66
2023-03-21T16:36:57.296Z,100533.00
2023-03-21T16:39:46.402Z,100531.41
2023-03-21T16:42:33.866Z,100530.66
2023-03-21T16:45:20.831Z,100537.06
2023-03-21T16:48:07.802Z,100544.22
2023-03-21T16:50:59.789Z,100542.59
2023-03-21T16:53:46.777Z,100534.09
2023-03-21T16:56:46.106Z,100542.94
2023-03-21T16:59:34.355Z,100516.44
2023-03-21T17:02:21.854Z,100534.69
2023-03-21T17:05:08.895Z,100532.81
2023-03-21T17:07:55.798Z,100536.53
2023-03-21T17:10:48.151Z,100532.28
2023-03-21T17:13:35.079Z,100543.03
2023-03-21T17:16:22.126Z,100532.88
2023-03-21T17:19:10.174Z,100545.16
2023-03-21T17:21:56.950Z,100554.13
2023-03-21T17:24:43.906Z,100555.25
2023-03-21T17:27:34.280Z,100552.00
2023-03-21T17:30:21.306Z,100554.81
2023-03-21T17:33:10.298Z,100561.09
2023-03-21T17:35:57.644Z,100566.56
2023-03-21T17:38:44.657Z,100560.56
2023-03-21T17:41:37.057Z,100562.44
2023-03-21T17:44:24.306Z,100569.63
2023-03-21T17:47:11.248Z,100570.69
2023-03-21T17:49:58.265Z,100572.56
2023-03-21T17:52:45.222Z,100573.59
2023-03-21T17:55:32.726Z,100571.13
2023-03-21T17:58:19.855Z,100579.19
2023-03-21T18:01:06.936Z,100579.31
2023-03-21T18:03:54.067Z,100556.06
2023-03-21T18:06:43.383Z,100575.13
2023-03-21T18:09:31.114Z,100572.66
2023-03-21T18:12:18.073Z,100575.50
2023-03-21T18:15:13.868Z,100571.31
2023-03-21T18:18:01.613Z,100574.94
2023-03-21T18:20:53.963Z,100540.69
2023-03-21T18:23:42.044Z,100575.25
2023-03-21T18:26:31.255Z,100579.81
2023-03-21T18:32:25.824Z,100579.53
2023-03-21T18:35:13.290Z,100585.63
2023-03-21T18:38:00.922Z,100587.59
2023-03-21T18:40:48.150Z,100588.63
2023-03-21T18:46:42.585Z,100587.28
2023-03-21T18:52:36.705Z,100575.59
2023-03-21T18:55:44.188Z,100591.25
2023-03-21T18:58:32.282Z,100543.88
2023-03-21T19:01:19.389Z,100582.84
2023-03-21T19:04:20.671Z,100582.94
2023-03-21T19:07:09.779Z,100554.66
2023-03-21T19:10:16.517Z,100591.94
2023-03-21T19:13:04.576Z,100590.41
2023-03-21T19:15:51.563Z,100586.97
2023-03-21T19:18:54.005Z,100588.84
2023-03-21T19:21:41.701Z,100589.88
2023-03-21T19:24:29.236Z,100587.38
2023-03-21T19:27:16.374Z,100599.75
2023-03-21T19:30:13.983Z,100587.72
2023-03-21T19:33:01.882Z,100593.78
2023-03-21T19:35:49.061Z,100598.28
2023-03-21T19:38:36.369Z,100589.56
2023-03-21T19:41:23.594Z,100584.41
2023-03-21T19:44:12.207Z,100575.91
2023-03-21T19:46:59.088Z,100591.59
2023-03-21T19:50:39.211Z,100584.66
2023-03-21T19:52:53.340Z,100590.03
2023-03-21T19:55:40.491Z,100591.84
2023-03-21T19:58:27.503Z,100588.47
2023-03-21T20:01:14.485Z,100606.03
2023-03-21T20:04:02.756Z,100593.81
2023-03-21T20:06:49.694Z,100593.03
2023-03-21T20:09:51.325Z,100588.69
2023-03-21T20:12:40.087Z,100580.97
2023-03-21T20:15:29.986Z,100582.66
2023-03-21T20:18:17.761Z,100585.34
2023-03-21T20:21:04.802Z,100586.25
2023-03-21T20:23:51.711Z,100576.69
2023-03-21T20:26:38.719Z,100581.13
2023-03-21T20:32:32.674Z,100582.28
2023-03-21T20:35:32.927Z,100592.75
2023-03-21T20:38:26.934Z,100590.22
2023-03-21T20:41:14.101Z,100595.50
2023-03-21T20:47:08.528Z,100591.25
2023-03-21T20:49:55.490Z,100595.72
2023-03-21T20:53:05.627Z,100592.25
2023-03-21T20:55:53.671Z,100616.81
2023-03-21T20:59:11.869Z,100613.41
2023-03-21T21:01:47.607Z,100604.91
2023-03-21T21:04:52.521Z,100610.13
2023-03-21T21:07:42.759Z,100613.63
2023-03-21T21:10:33.781Z,100616.31
2023-03-21T21:13:21.295Z,100605.03
2023-03-21T21:16:08.517Z,100610.34
2023-03-21T21:18:56.183Z,100609.56
2023-03-21T21:21:43.144Z,100581.06
2023-03-21T21:24:29.961Z,100611.50
2023-03-21T21:27:17.069Z,100606.31
2023-03-21T21:30:03.908Z,100609.94
2023-03-21T21:32:50.865Z,100611.72
2023-03-21T21:35:37.807Z,100602.22
2023-03-21T21:38:24.917Z,100608.47
2023-03-21T21:41:12.565Z,100610.28
2023-03-21T21:43:59.559Z,100606.06
2023-03-21T21:46:46.476Z,100605.25
2023-03-21T21:49:33.608Z,100597.47
2023-03-21T21:52:20.474Z,100594.97
2023-03-21T21:55:07.573Z,100601.16
2023-03-21T21:57:54.468Z,100566.75
2023-03-21T22:00:41.731Z,100603.09
2023-03-21T22:03:28.752Z,100553.94
2023-03-21T22:06:22.235Z,100601.50
2023-03-21T22:09:09.223Z,100602.44
2023-03-21T22:11:56.846Z,100603.38
2023-03-21T22:14:43.744Z,100615.69
2023-03-21T22:17:30.886Z,100617.50
2023-03-21T22:20:17.837Z,100614.06
2023-03-21T22:23:05.645Z,100608.09
2023-03-21T22:25:55.465Z,100612.56
2023-03-21T22:28:43.534Z,100600.41
2023-03-21T22:31:35.794Z,100609.22
2023-03-21T22:34:22.886Z,100598.06
2023-03-21T22:37:10.361Z,100601.53
2023-03-21T22:39:57.523Z,100607.72
2023-03-21T22:42:44.982Z,100583.59
2023-03-21T22:45:33.721Z,100586.28
2023-03-21T22:48:21.194Z,100614.09
2023-03-21T22:51:08.623Z,100609.81
2023-03-21T22:53:55.589Z,100618.59
2023-03-21T22:56:42.597Z,100612.56
2023-03-21T22:59:29.558Z,100610.00
2023-03-21T23:02:16.673Z,100610.97
2023-03-21T23:05:03.546Z,100610.22
2023-03-21T23:07:50.557Z,100610.28
2023-03-21T23:10:38.098Z,100621.69
2023-03-21T23:13:26.904Z,100613.94
2023-03-21T23:16:13.860Z,100605.31
2023-03-21T23:19:02.006Z,100614.97
2023-03-21T23:21:48.826Z,100571.78
2023-03-21T23:24:35.848Z,100608.09
2023-03-21T23:27:22.899Z,100595.97
2023-03-21T23:30:10.156Z,100590.81
2023-03-21T23:32:57.055Z,100590.91
2023-03-21T23:35:44.147Z,100589.28
2023-03-21T23:38:31.034Z,100591.06
2023-03-21T23:41:18.275Z,100593.75
2023-03-21T23:44:05.719Z,100601.69
2023-03-21T23:46:52.760Z,100591.34
2023-03-21T23:49:39.752Z,100598.38
2023-03-21T23:52:27.140Z,100597.53
2023-03-21T23:55:14.064Z,100592.38
2023-03-21T23:57:57.682Z,100598.53
